sensor_id;sensor_type;location;lat;lon;timestamp;pressure;altitude;pressure_sealevel;temperature;humidity
40384;BME280;26097;42.366;23.818;2024-02-23T00:01:03;93900.09;;;0.79;100.00
40384;BME280;26097;42.366;23.818;2024-02-23T00:04:03;93897.59;;;0.77;100.00
40384;BME280;26097;42.366;23.818;2024-02-23T00:07:02;93890.66;;;0.79;100.00
40384;BME280;26097;42.366;23.818;2024-02-23T00:10:05;93880.78;;;0.70;100.00
40384;BME280;26097;42.366;23.818;2024-02-23T00:13:04;93899.28;;;0.56;100.00
40384;BME280;26097;42.366;23.818;2024-02-23T00:16:04;93885.69;;;0.54;100.00
40384;BME280;26097;42.366;23.818;2024-02-23T00:19:03;93886.59;;;0.53;100.00
40384;BME280;26097;42.366;23.818;2024-02-23T00:22:02;93883.06;;;0.55;100.00
40384;BME280;26097;42.366;23.818;2024-02-23T00:25:02;93878.41;;;0.65;100.00
40384;BME280;26097;42.366;23.818;2024-02-23T00:28:02;93870.88;;;0.61;100.00
40384;BME280;26097;42.366;23.818;2024-02-23T00:31:01;93871.75;;;0.61;100.00
40384;BME280;26097;42.366;23.818;2024-02-23T00:34:01;93874.34;;;0.60;100.00
40384;BME280;26097;42.366;23.818;2024-02-23T00:37:00;93875.13;;;0.62;100.00
40384;BME280;26097;42.366;23.818;2024-02-23T00:39:59;93876.28;;;0.54;100.00
40384;BME280;26097;42.366;23.818;2024-02-23T00:42:59;93869.41;;;0.55;100.00
40384;BME280;26097;42.366;23.818;2024-02-23T00:46:02;93867.41;;;0.62;100.00
40384;BME280;26097;42.366;23.818;2024-02-23T00:49:01;93859.91;;;0.57;100.00
40384;BME280;26097;42.366;23.818;2024-02-23T00:52:01;93865.16;;;0.54;100.00
40384;BME280;26097;42.366;23.818;2024-02-23T00:55:01;93858.31;;;0.54;100.00
40384;BME280;26097;42.366;23.818;2024-02-23T00:58:00;93855.03;;;0.51;100.00
40384;BME280;26097;42.366;23.818;2024-02-23T01:01:00;93854.91;;;0.54;100.00
40384;BME280;26097;42.366;23.818;2024-02-23T01:04:00;93850.09;;;0.46;100.00
40384;BME280;26097;42.366;23.818;2024-02-23T01:07:00;93857.31;;;0.36;100.00
40384;BME280;26097;42.366;23.818;2024-02-23T01:09:59;93852.69;;;0.24;100.00
40384;BME280;26097;42.366;23.818;2024-02-23T01:12:58;93851.38;;;0.13;100.00
40384;BME280;26097;42.366;23.818;2024-02-23T01:15:58;93853.53;;;0.02;100.00
40384;BME280;26097;42.366;23.818;2024-02-23T01:18:57;93848.63;;;-0.04;100.00
40384;BME280;26097;42.366;23.818;2024-02-23T01:21:56;93843.50;;;-0.04;100.00
40384;BME280;26097;42.366;23.818;2024-02-23T01:24:59;93842.56;;;-0.02;100.00
40384;BME280;26097;42.366;23.818;2024-02-23T01:27:58;93847.81;;;-0.05;100.00
40384;BME280;26097;42.366;23.818;2024-02-23T01:30:57;93836.97;;;-0.11;100.00
40384;BME280;26097;42.366;23.818;2024-02-23T01:33:57;93833.84;;;-0.20;100.00
40384;BME280;26097;42.366;23.818;2024-02-23T01:36:56;93829.84;;;-0.27;100.00
40384;BME280;26097;42.366;23.818;2024-02-23T01:39:55;93828.72;;;-0.20;100.00
40384;BME280;26097;42.366;23.818;2024-02-23T01:43:04;93834.84;;;-0.24;100.00
40384;BME280;26097;42.366;23.818;2024-02-23T01:46:04;93823.63;;;-0.44;100.00
40384;BME280;26097;42.366;23.818;2024-02-23T01:49:05;93824.31;;;-0.38;100.00
40384;BME280;26097;42.366;23.818;2024-02-23T01:52:06;93823.19;;;-0.31;100.00
40384;BME280;26097;42.366;23.818;2024-02-23T01:55:09;93817.75;;;-0.46;100.00
40384;BME280;26097;42.366;23.818;2024-02-23T01:58:08;93811.84;;;-0.48;100.00
40384;BME280;26097;42.366;23.818;2024-02-23T02:01:07;93822.75;;;-0.43;100.00
40384;BME280;26097;42.366;23.818;2024-02-23T02:04:07;93818.97;;;-0.32;100.00
40384;BME280;26097;42.366;23.818;2024-02-23T02:07:06;93820.00;;;-0.38;100.00
40384;BME280;26097;42.366;23.818;2024-02-23T02:10:08;93810.13;;;-0.47;100.00
40384;BME280;26097;42.366;23.818;2024-02-23T02:13:08;93805.81;;;-0.47;100.00
40384;BME280;26097;42.366;23.818;2024-02-23T02:16:08;93805.09;;;-0.50;100.00
40384;BME280;26097;42.366;23.818;2024-02-23T02:19:07;93803.34;;;-0.48;100.00
40384;BME280;26097;42.366;23.818;2024-02-23T02:22:06;93805.47;;;-0.60;100.00
40384;BME280;26097;42.366;23.818;2024-02-23T02:25:06;93798.84;;;-0.65;100.00
40384;BME280;26097;42.366;23.818;2024-02-23T02:28:06;93803.06;;;-0.64;100.00
40384;BME280;26097;42.366;23.818;2024-02-23T02:31:07;93806.63;;;-0.68;100.00
40384;BME280;26097;42.366;23.818;2024-02-23T02:34:06;93807.63;;;-0.73;100.00
40384;BME280;26097;42.366;23.818;2024-02-23T02:37:05;93810.25;;;-0.74;100.00
40384;BME280;26097;42.366;23.818;2024-02-23T02:40:05;93806.91;;;-0.76;100.00
40384;BME280;26097;42.366;23.818;2024-02-23T02:43:05;93805.50;;;-0.85;100.00
40384;BME280;26097;42.366;23.818;2024-02-23T02:46:05;93798.97;;;-0.92;100.00
40384;BME280;26097;42.366;23.818;2024-02-23T02:49:04;93801.72;;;-0.98;100.00
40384;BME280;26097;42.366;23.818;2024-02-23T02:52:04;93795.94;;;-1.04;100.00
40384;BME280;26097;42.366;23.818;2024-02-23T02:55:04;93803.78;;;-1.08;100.00
40384;BME280;26097;42.366;23.818;2024-02-23T02:58:03;93810.06;;;-1.17;100.00
40384;BME280;26097;42.366;23.818;2024-02-23T03:01:03;93812.78;;;-1.22;100.00
40384;BME280;26097;42.366;23.818;2024-02-23T03:04:02;93809.34;;;-1.21;100.00
40384;BME280;26097;42.366;23.818;2024-02-23T03:07:02;93806.19;;;-1.29;100.00
40384;BME280;26097;42.366;23.818;2024-02-23T03:10:01;93802.22;;;-1.38;100.00
40384;BME280;26097;42.366;23.818;2024-02-23T03:13:01;93814.03;;;-1.34;100.00
40384;BME280;26097;42.366;23.818;2024-02-23T03:16:00;93811.66;;;-1.40;100.00
40384;BME280;26097;42.366;23.818;2024-02-23T03:18:59;93816.34;;;-1.51;100.00
40384;BME280;26097;42.366;23.818;2024-02-23T03:21:59;93817.56;;;-1.63;100.00
40384;BME280;26097;42.366;23.818;2024-02-23T03:24:58;93812.59;;;-1.68;100.00
40384;BME280;26097;42.366;23.818;2024-02-23T03:27:58;93811.50;;;-1.61;100.00
40384;BME280;26097;42.366;23.818;2024-02-23T03:30:57;93805.50;;;-1.60;100.00
40384;BME280;26097;42.366;23.818;2024-02-23T03:33:57;93807.34;;;-1.63;100.00
40384;BME280;26097;42.366;23.818;2024-02-23T03:36:56;93823.56;;;-1.64;100.00
40384;BME280;26097;42.366;23.818;2024-02-23T03:39:57;93816.28;;;-1.77;100.00
40384;BME280;26097;42.366;23.818;2024-02-23T03:42:57;93820.66;;;-1.80;100.00
40384;BME280;26097;42.366;23.818;2024-02-23T03:45:56;93818.00;;;-1.77;100.00
40384;BME280;26097;42.366;23.818;2024-02-23T03:48:56;93823.44;;;-1.87;100.00
40384;BME280;26097;42.366;23.818;2024-02-23T03:51:55;93815.88;;;-1.90;100.00
40384;BME280;26097;42.366;23.818;2024-02-23T03:54:54;93812.56;;;-1.93;100.00
40384;BME280;26097;42.366;23.818;2024-02-23T03:57:54;93817.66;;;-1.93;100.00
40384;BME280;26097;42.366;23.818;2024-02-23T04:00:53;93810.69;;;-1.88;100.00
40384;BME280;26097;42.366;23.818;2024-02-23T04:03:53;93822.84;;;-1.95;100.00
40384;BME280;26097;42.366;23.818;2024-02-23T04:06:52;93820.56;;;-2.04;100.00
40384;BME280;26097;42.366;23.818;2024-02-23T04:09:51;93824.22;;;-2.11;100.00
40384;BME280;26097;42.366;23.818;2024-02-23T04:12:54;93823.31;;;-2.10;100.00
40384;BME280;26097;42.366;23.818;2024-02-23T04:15:53;93825.88;;;-2.10;100.00
40384;BME280;26097;42.366;23.818;2024-02-23T04:18:53;93822.56;;;-2.14;100.00
40384;BME280;26097;42.366;23.818;2024-02-23T04:21:53;93823.50;;;-2.17;100.00
40384;BME280;26097;42.366;23.818;2024-02-23T04:24:52;93826.94;;;-2.18;100.00
40384;BME280;26097;42.366;23.818;2024-02-23T04:27:52;93835.41;;;-2.16;100.00
40384;BME280;26097;42.366;23.818;2024-02-23T04:30:51;93837.13;;;-2.18;100.00
40384;BME280;26097;42.366;23.818;2024-02-23T04:33:51;93839.09;;;-2.26;100.00
40384;BME280;26097;42.366;23.818;2024-02-23T04:36:50;93844.41;;;-2.32;100.00
40384;BME280;26097;42.366;23.818;2024-02-23T04:39:49;93841.06;;;-2.34;100.00
40384;BME280;26097;42.366;23.818;2024-02-23T04:42:49;93849.50;;;-2.32;100.00
40384;BME280;26097;42.366;23.818;2024-02-23T04:45:48;93845.19;;;-2.30;100.00
40384;BME280;26097;42.366;23.818;2024-02-23T04:48:47;93843.38;;;-2.26;100.00
40384;BME280;26097;42.366;23.818;2024-02-23T04:51:47;93848.63;;;-2.31;100.00
40384;BME280;26097;42.366;23.818;2024-02-23T04:54:46;93842.66;;;-2.32;100.00
40384;BME280;26097;42.366;23.818;2024-02-23T04:57:46;93850.34;;;-2.32;100.00
40384;BME280;26097;42.366;23.818;2024-02-23T05:00:45;93857.75;;;-2.24;100.00
40384;BME280;26097;42.366;23.818;2024-02-23T05:03:44;93850.22;;;-2.28;100.00
40384;BME280;26097;42.366;23.818;2024-02-23T05:06:44;93852.53;;;-2.19;100.00
40384;BME280;26097;42.366;23.818;2024-02-23T05:09:43;93842.09;;;-2.11;100.00
40384;BME280;26097;42.366;23.818;2024-02-23T05:12:42;93844.66;;;-2.13;100.00
40384;BME280;26097;42.366;23.818;2024-02-23T05:15:42;93838.91;;;-2.20;100.00
40384;BME280;26097;42.366;23.818;2024-02-23T05:18:41;93838.91;;;-2.20;100.00
40384;BME280;26097;42.366;23.818;2024-02-23T05:21:41;93845.63;;;-2.16;100.00
40384;BME280;26097;42.366;23.818;2024-02-23T05:24:40;93840.88;;;-2.28;100.00
40384;BME280;26097;42.366;23.818;2024-02-23T05:27:39;93844.22;;;-2.26;100.00
40384;BME280;26097;42.366;23.818;2024-02-23T05:30:39;93836.31;;;-2.18;100.00
40384;BME280;26097;42.366;23.818;2024-02-23T05:33:38;93848.84;;;-2.10;100.00
40384;BME280;26097;42.366;23.818;2024-02-23T05:36:38;93847.19;;;-2.11;100.00
40384;BME280;26097;42.366;23.818;2024-02-23T05:39:37;93843.66;;;-2.07;100.00
40384;BME280;26097;42.366;23.818;2024-02-23T05:42:37;93838.34;;;-2.01;100.00
40384;BME280;26097;42.366;23.818;2024-02-23T05:45:36;93846.41;;;-1.87;100.00
40384;BME280;26097;42.366;23.818;2024-02-23T05:48:36;93849.56;;;-1.78;100.00
40384;BME280;26097;42.366;23.818;2024-02-23T05:51:35;93852.91;;;-1.76;100.00
40384;BME280;26097;42.366;23.818;2024-02-23T05:54:35;93859.50;;;-1.69;100.00
40384;BME280;26097;42.366;23.818;2024-02-23T05:57:34;93860.13;;;-1.62;100.00
40384;BME280;26097;42.366;23.818;2024-02-23T06:00:34;93870.78;;;-1.49;100.00
40384;BME280;26097;42.366;23.818;2024-02-23T06:03:33;93872.78;;;-1.32;100.00
40384;BME280;26097;42.366;23.818;2024-02-23T06:06:33;93866.34;;;-1.17;100.00
40384;BME280;26097;42.366;23.818;2024-02-23T06:09:32;93869.13;;;-0.99;100.00
40384;BME280;26097;42.366;23.818;2024-02-23T06:12:32;93869.50;;;-0.85;100.00
40384;BME280;26097;42.366;23.818;2024-02-23T06:15:31;93872.41;;;-0.70;100.00
40384;BME280;26097;42.366;23.818;2024-02-23T06:18:30;93880.38;;;-0.54;100.00
40384;BME280;26097;42.366;23.818;2024-02-23T06:21:30;93883.66;;;-0.27;100.00
40384;BME280;26097;42.366;23.818;2024-02-23T06:24:29;93882.13;;;-0.09;100.00
40384;BME280;26097;42.366;23.818;2024-02-23T06:27:29;93874.03;;;0.02;100.00
40384;BME280;26097;42.366;23.818;2024-02-23T06:30:29;93876.66;;;0.23;100.00
40384;BME280;26097;42.366;23.818;2024-02-23T06:33:28;93873.59;;;0.35;100.00
40384;BME280;26097;42.366;23.818;2024-02-23T06:36:28;93877.22;;;0.52;100.00
40384;BME280;26097;42.366;23.818;2024-02-23T06:39:28;93883.59;;;0.64;100.00
40384;BME280;26097;42.366;23.818;2024-02-23T06:42:27;93890.72;;;0.78;100.00
40384;BME280;26097;42.366;23.818;2024-02-23T06:45:26;93887.50;;;0.93;100.00
40384;BME280;26097;42.366;23.818;2024-02-23T06:48:26;93889.41;;;1.10;100.00
40384;BME280;26097;42.366;23.818;2024-02-23T06:51:25;93885.97;;;1.31;100.00
40384;BME280;26097;42.366;23.818;2024-02-23T06:54:25;93876.56;;;1.50;100.00
40384;BME280;26097;42.366;23.818;2024-02-23T06:57:24;93884.50;;;1.65;100.00
40384;BME280;26097;42.366;23.818;2024-02-23T07:00:25;93898.34;;;1.81;100.00
40384;BME280;26097;42.366;23.818;2024-02-23T07:03:24;93888.13;;;1.99;100.00
40384;BME280;26097;42.366;23.818;2024-02-23T07:06:23;93889.91;;;2.16;100.00
40384;BME280;26097;42.366;23.818;2024-02-23T07:09:23;93900.31;;;2.32;100.00
40384;BME280;26097;42.366;23.818;2024-02-23T07:12:22;93893.06;;;2.40;100.00
40384;BME280;26097;42.366;23.818;2024-02-23T07:15:22;93882.34;;;2.50;100.00
40384;BME280;26097;42.366;23.818;2024-02-23T07:18:22;93887.66;;;2.64;100.00
40384;BME280;26097;42.366;23.818;2024-02-23T07:21:21;93882.69;;;2.79;100.00
40384;BME280;26097;42.366;23.818;2024-02-23T07:24:21;93879.97;;;2.99;100.00
40384;BME280;26097;42.366;23.818;2024-02-23T07:27:20;93888.66;;;3.14;100.00
40384;BME280;26097;42.366;23.818;2024-02-23T07:30:19;93894.00;;;3.27;100.00
40384;BME280;26097;42.366;23.818;2024-02-23T07:33:19;93883.28;;;3.53;100.00
40384;BME280;26097;42.366;23.818;2024-02-23T07:36:18;93891.22;;;3.66;100.00
40384;BME280;26097;42.366;23.818;2024-02-23T07:39:18;93886.34;;;3.77;100.00
40384;BME280;26097;42.366;23.818;2024-02-23T07:42:17;93884.00;;;3.89;100.00
40384;BME280;26097;42.366;23.818;2024-02-23T07:45:17;93886.13;;;3.98;100.00
40384;BME280;26097;42.366;23.818;2024-02-23T07:48:17;93870.88;;;4.09;100.00
40384;BME280;26097;42.366;23.818;2024-02-23T07:51:16;93873.16;;;4.16;100.00
40384;BME280;26097;42.366;23.818;2024-02-23T07:54:16;93863.97;;;4.26;100.00
40384;BME280;26097;42.366;23.818;2024-02-23T07:57:15;93855.56;;;4.38;100.00
40384;BME280;26097;42.366;23.818;2024-02-23T08:00:16;93861.38;;;4.58;100.00
40384;BME280;26097;42.366;23.818;2024-02-23T08:03:15;93865.31;;;4.80;100.00
40384;BME280;26097;42.366;23.818;2024-02-23T08:06:15;93862.22;;;5.04;100.00
40384;BME280;26097;42.366;23.818;2024-02-23T08:09:14;93856.19;;;5.19;100.00
40384;BME280;26097;42.366;23.818;2024-02-23T08:12:14;93868.38;;;5.46;100.00
40384;BME280;26097;42.366;23.818;2024-02-23T08:15:15;93859.91;;;5.73;100.00
40384;BME280;26097;42.366;23.818;2024-02-23T08:18:14;93876.97;;;5.90;100.00
40384;BME280;26097;42.366;23.818;2024-02-23T08:21:14;93872.47;;;5.94;100.00
40384;BME280;26097;42.366;23.818;2024-02-23T08:24:13;93867.84;;;6.13;100.00
40384;BME280;26097;42.366;23.818;2024-02-23T08:27:12;93872.63;;;6.20;100.00
40384;BME280;26097;42.366;23.818;2024-02-23T08:30:13;93863.16;;;6.33;100.00
40384;BME280;26097;42.366;23.818;2024-02-23T08:33:12;93861.38;;;6.48;100.00
40384;BME280;26097;42.366;23.818;2024-02-23T08:36:12;93857.34;;;6.57;100.00
40384;BME280;26097;42.366;23.818;2024-02-23T08:39:11;93857.69;;;6.65;100.00
40384;BME280;26097;42.366;23.818;2024-02-23T08:42:10;93853.81;;;6.85;100.00
40384;BME280;26097;42.366;23.818;2024-02-23T08:45:10;93850.13;;;7.03;100.00
40384;BME280;26097;42.366;23.818;2024-02-23T08:48:11;93847.03;;;7.23;100.00
40384;BME280;26097;42.366;23.818;2024-02-23T08:51:14;93858.25;;;7.37;100.00
40384;BME280;26097;42.366;23.818;2024-02-23T08:54:13;93854.31;;;7.57;100.00
40384;BME280;26097;42.366;23.818;2024-02-23T08:57:12;93845.59;;;7.71;100.00
40384;BME280;26097;42.366;23.818;2024-02-23T09:00:16;93842.84;;;7.85;100.00
40384;BME280;26097;42.366;23.818;2024-02-23T09:03:16;93840.13;;;8.00;100.00
40384;BME280;26097;42.366;23.818;2024-02-23T09:06:15;93841.97;;;8.11;100.00
40384;BME280;26097;42.366;23.818;2024-02-23T09:09:14;93840.00;;;8.14;100.00
40384;BME280;26097;42.366;23.818;2024-02-23T09:12:15;93833.84;;;8.28;100.00
40384;BME280;26097;42.366;23.818;2024-02-23T09:15:15;93835.75;;;8.51;100.00
40384;BME280;26097;42.366;23.818;2024-02-23T09:18:14;93843.41;;;8.65;100.00
40384;BME280;26097;42.366;23.818;2024-02-23T09:21:14;93832.56;;;8.83;100.00
40384;BME280;26097;42.366;23.818;2024-02-23T09:24:13;93837.19;;;9.15;100.00
40384;BME280;26097;42.366;23.818;2024-02-23T09:27:13;93836.13;;;9.18;100.00
40384;BME280;26097;42.366;23.818;2024-02-23T09:30:13;93843.56;;;9.22;100.00
40384;BME280;26097;42.366;23.818;2024-02-23T09:33:12;93841.47;;;9.27;100.00
40384;BME280;26097;42.366;23.818;2024-02-23T09:36:12;93841.75;;;9.47;100.00
40384;BME280;26097;42.366;23.818;2024-02-23T09:39:11;93839.28;;;9.57;100.00
40384;BME280;26097;42.366;23.818;2024-02-23T09:42:11;93840.56;;;9.63;100.00
40384;BME280;26097;42.366;23.818;2024-02-23T09:45:11;93844.59;;;9.67;100.00
40384;BME280;26097;42.366;23.818;2024-02-23T09:48:12;93839.50;;;9.88;100.00
40384;BME280;26097;42.366;23.818;2024-02-23T09:51:14;93839.16;;;10.15;99.23
40384;BME280;26097;42.366;23.818;2024-02-23T09:54:14;93835.69;;;10.38;97.20
40384;BME280;26097;42.366;23.818;2024-02-23T09:57:15;93840.28;;;10.57;94.89
40384;BME280;26097;42.366;23.818;2024-02-23T10:00:17;93836.41;;;10.84;91.49
40384;BME280;26097;42.366;23.818;2024-02-23T10:03:17;93831.94;;;10.75;91.53
40384;BME280;26097;42.366;23.818;2024-02-23T10:06:16;93838.25;;;10.93;92.72
40384;BME280;26097;42.366;23.818;2024-02-23T10:09:16;93835.66;;;10.93;89.51
40384;BME280;26097;42.366;23.818;2024-02-23T10:12:16;93838.94;;;11.07;81.82
40384;BME280;26097;42.366;23.818;2024-02-23T10:15:16;93825.81;;;11.39;85.30
40384;BME280;26097;42.366;23.818;2024-02-23T10:18:16;93824.09;;;11.50;86.61
40384;BME280;26097;42.366;23.818;2024-02-23T10:21:16;93827.53;;;11.50;81.69
40384;BME280;26097;42.366;23.818;2024-02-23T10:24:16;93817.09;;;11.50;81.83
40384;BME280;26097;42.366;23.818;2024-02-23T10:27:18;93809.53;;;11.47;83.03
40384;BME280;26097;42.366;23.818;2024-02-23T10:30:17;93810.69;;;11.64;77.53
40384;BME280;26097;42.366;23.818;2024-02-23T10:33:20;93808.66;;;11.68;77.95
40384;BME280;26097;42.366;23.818;2024-02-23T10:36:22;93807.59;;;11.70;74.53
40384;BME280;26097;42.366;23.818;2024-02-23T10:39:24;93802.03;;;11.95;76.17
40384;BME280;26097;42.366;23.818;2024-02-23T10:42:23;93801.22;;;11.94;73.80
40384;BME280;26097;42.366;23.818;2024-02-23T10:45:24;93792.25;;;11.87;73.28
40384;BME280;26097;42.366;23.818;2024-02-23T10:48:24;93784.38;;;12.08;74.23
40384;BME280;26097;42.366;23.818;2024-02-23T10:51:23;93782.22;;;12.33;73.20
40384;BME280;26097;42.366;23.818;2024-02-23T10:54:24;93785.28;;;12.38;74.20
40384;BME280;26097;42.366;23.818;2024-02-23T10:57:24;93785.84;;;12.52;72.82
40384;BME280;26097;42.366;23.818;2024-02-23T11:00:24;93775.09;;;12.55;72.61
40384;BME280;26097;42.366;23.818;2024-02-23T11:03:25;93773.19;;;12.77;71.93
40384;BME280;26097;42.366;23.818;2024-02-23T11:06:28;93772.94;;;12.80;69.22
40384;BME280;26097;42.366;23.818;2024-02-23T11:09:27;93769.44;;;13.19;65.32
40384;BME280;26097;42.366;23.818;2024-02-23T11:12:29;93760.91;;;13.17;68.40
40384;BME280;26097;42.366;23.818;2024-02-23T11:15:30;93756.91;;;13.12;64.97
40384;BME280;26097;42.366;23.818;2024-02-23T11:18:35;93760.72;;;13.38;66.46
40384;BME280;26097;42.366;23.818;2024-02-23T11:21:37;93755.72;;;13.54;63.52
40384;BME280;26097;42.366;23.818;2024-02-23T11:24:42;93747.88;;;13.54;60.89
40384;BME280;26097;42.366;23.818;2024-02-23T11:27:42;93752.06;;;13.75;59.68
40384;BME280;26097;42.366;23.818;2024-02-23T11:30:44;93743.78;;;13.80;62.88
40384;BME280;26097;42.366;23.818;2024-02-23T11:33:48;93742.44;;;13.76;61.75
40384;BME280;26097;42.366;23.818;2024-02-23T11:36:51;93745.38;;;13.63;60.44
40384;BME280;26097;42.366;23.818;2024-02-23T11:39:52;93740.53;;;13.68;61.25
40384;BME280;26097;42.366;23.818;2024-02-23T11:42:52;93736.69;;;14.18;60.74
40384;BME280;26097;42.366;23.818;2024-02-23T11:45:53;93727.41;;;14.24;60.64
40384;BME280;26097;42.366;23.818;2024-02-23T11:48:52;93718.28;;;14.28;60.14
40384;BME280;26097;42.366;23.818;2024-02-23T11:51:55;93720.31;;;14.34;59.11
40384;BME280;26097;42.366;23.818;2024-02-23T11:54:54;93713.88;;;14.47;57.49
40384;BME280;26097;42.366;23.818;2024-02-23T11:57:55;93711.56;;;14.43;55.83
40384;BME280;26097;42.366;23.818;2024-02-23T12:00:54;93705.34;;;14.45;55.03
40384;BME280;26097;42.366;23.818;2024-02-23T12:03:54;93711.03;;;14.58;57.56
40384;BME280;26097;42.366;23.818;2024-02-23T12:06:54;93702.41;;;14.66;57.86
40384;BME280;26097;42.366;23.818;2024-02-23T12:09:53;93701.22;;;14.60;56.43
40384;BME280;26097;42.366;23.818;2024-02-23T12:12:54;93697.25;;;14.56;57.35
40384;BME280;26097;42.366;23.818;2024-02-23T12:15:53;93686.69;;;14.66;57.13
40384;BME280;26097;42.366;23.818;2024-02-23T12:18:54;93698.22;;;14.73;56.63
40384;BME280;26097;42.366;23.818;2024-02-23T12:21:54;93688.69;;;14.90;57.46
40384;BME280;26097;42.366;23.818;2024-02-23T12:24:59;93688.63;;;14.82;55.11
40384;BME280;26097;42.366;23.818;2024-02-23T12:27:59;93684.97;;;14.75;57.46
40384;BME280;26097;42.366;23.818;2024-02-23T12:31:00;93679.81;;;14.91;56.92
40384;BME280;26097;42.366;23.818;2024-02-23T12:34:00;93691.38;;;14.98;52.43
40384;BME280;26097;42.366;23.818;2024-02-23T12:37:04;93693.28;;;15.14;53.69
40384;BME280;26097;42.366;23.818;2024-02-23T12:40:05;93678.53;;;15.22;54.97
40384;BME280;26097;42.366;23.818;2024-02-23T12:43:04;93682.16;;;15.21;54.69
40384;BME280;26097;42.366;23.818;2024-02-23T12:46:04;93680.38;;;15.21;53.41
40384;BME280;26097;42.366;23.818;2024-02-23T12:49:03;93676.41;;;14.91;55.29
40384;BME280;26097;42.366;23.818;2024-02-23T12:52:03;93666.22;;;15.14;54.19
40384;BME280;26097;42.366;23.818;2024-02-23T12:55:03;93663.63;;;15.22;55.17
40384;BME280;26097;42.366;23.818;2024-02-23T12:58:03;93669.53;;;15.24;55.53
40384;BME280;26097;42.366;23.818;2024-02-23T13:01:02;93667.16;;;15.39;53.11
40384;BME280;26097;42.366;23.818;2024-02-23T13:04:02;93679.91;;;15.61;54.33
40384;BME280;26097;42.366;23.818;2024-02-23T13:07:01;93670.94;;;15.37;54.22
40384;BME280;26097;42.366;23.818;2024-02-23T13:10:01;93663.44;;;15.50;54.26
40384;BME280;26097;42.366;23.818;2024-02-23T13:13:01;93662.53;;;15.33;54.92
40384;BME280;26097;42.366;23.818;2024-02-23T13:16:01;93666.34;;;15.39;52.62
40384;BME280;26097;42.366;23.818;2024-02-23T13:19:01;93663.88;;;15.37;54.16
40384;BME280;26097;42.366;23.818;2024-02-23T13:22:00;93664.66;;;15.64;53.68
40384;BME280;26097;42.366;23.818;2024-02-23T13:25:00;93663.41;;;15.42;54.91
40384;BME280;26097;42.366;23.818;2024-02-23T13:27:59;93666.34;;;15.39;54.37
40384;BME280;26097;42.366;23.818;2024-02-23T13:30:59;93663.06;;;15.37;54.62
40384;BME280;26097;42.366;23.818;2024-02-23T13:33:58;93662.41;;;15.35;55.16
40384;BME280;26097;42.366;23.818;2024-02-23T13:36:57;93662.19;;;15.63;54.79
40384;BME280;26097;42.366;23.818;2024-02-23T13:39:57;93670.66;;;15.48;54.89
40384;BME280;26097;42.366;23.818;2024-02-23T13:42:56;93672.63;;;15.46;54.84
40384;BME280;26097;42.366;23.818;2024-02-23T13:45:56;93655.72;;;15.14;56.10
40384;BME280;26097;42.366;23.818;2024-02-23T13:49:04;93665.16;;;15.33;54.49
40384;BME280;26097;42.366;23.818;2024-02-23T13:52:04;93660.47;;;15.45;54.83
40384;BME280;26097;42.366;23.818;2024-02-23T13:55:04;93661.78;;;15.49;55.10
40384;BME280;26097;42.366;23.818;2024-02-23T13:58:04;93667.50;;;15.10;56.69
40384;BME280;26097;42.366;23.818;2024-02-23T14:01:03;93670.97;;;14.92;56.92
40384;BME280;26097;42.366;23.818;2024-02-23T14:04:06;93669.66;;;14.88;56.94
40384;BME280;26097;42.366;23.818;2024-02-23T14:07:07;93665.69;;;15.10;56.82
40384;BME280;26097;42.366;23.818;2024-02-23T14:10:07;93669.84;;;14.95;56.90
40384;BME280;26097;42.366;23.818;2024-02-23T14:13:07;93664.94;;;14.92;57.32
40384;BME280;26097;42.366;23.818;2024-02-23T14:16:06;93676.19;;;14.66;57.56
40384;BME280;26097;42.366;23.818;2024-02-23T14:19:06;93675.81;;;14.79;57.78
40384;BME280;26097;42.366;23.818;2024-02-23T14:22:05;93669.75;;;14.60;57.53
40384;BME280;26097;42.366;23.818;2024-02-23T14:25:05;93680.88;;;14.98;56.96
40384;BME280;26097;42.366;23.818;2024-02-23T14:28:05;93666.88;;;14.90;56.94
40384;BME280;26097;42.366;23.818;2024-02-23T14:31:04;93673.78;;;14.91;55.88
40384;BME280;26097;42.366;23.818;2024-02-23T14:34:04;93674.09;;;14.51;56.88
40384;BME280;26097;42.366;23.818;2024-02-23T14:37:03;93669.31;;;14.28;57.10
40384;BME280;26097;42.366;23.818;2024-02-23T14:40:03;93673.91;;;13.98;58.25
40384;BME280;26097;42.366;23.818;2024-02-23T14:43:04;93677.09;;;13.46;59.00
40384;BME280;26097;42.366;23.818;2024-02-23T14:46:04;93674.56;;;13.07;60.73
40384;BME280;26097;42.366;23.818;2024-02-23T14:49:04;93676.97;;;12.80;61.55
40384;BME280;26097;42.366;23.818;2024-02-23T14:52:04;93692.28;;;12.55;62.48
40384;BME280;26097;42.366;23.818;2024-02-23T14:55:04;93691.44;;;12.35;62.80
40384;BME280;26097;42.366;23.818;2024-02-23T14:58:03;93693.38;;;12.23;63.37
40384;BME280;26097;42.366;23.818;2024-02-23T15:01:03;93695.97;;;12.23;63.17
40384;BME280;26097;42.366;23.818;2024-02-23T15:04:03;93702.31;;;12.11;63.16
40384;BME280;26097;42.366;23.818;2024-02-23T15:07:02;93706.00;;;12.08;63.33
40384;BME280;26097;42.366;23.818;2024-02-23T15:10:03;93707.25;;;12.04;63.56
40384;BME280;26097;42.366;23.818;2024-02-23T15:13:08;93701.56;;;11.99;64.19
40384;BME280;26097;42.366;23.818;2024-02-23T15:16:07;93690.69;;;11.94;63.97
40384;BME280;26097;42.366;23.818;2024-02-23T15:19:06;93705.38;;;11.85;64.50
40384;BME280;26097;42.366;23.818;2024-02-23T15:22:06;93709.47;;;11.68;65.15
40384;BME280;26097;42.366;23.818;2024-02-23T15:25:08;93714.34;;;11.51;65.61
40384;BME280;26097;42.366;23.818;2024-02-23T15:28:08;93704.50;;;11.34;66.02
40384;BME280;26097;42.366;23.818;2024-02-23T15:31:08;93712.81;;;11.18;66.38
40384;BME280;26097;42.366;23.818;2024-02-23T15:34:08;93711.66;;;11.00;67.15
40384;BME280;26097;42.366;23.818;2024-02-23T15:37:08;93709.16;;;10.78;68.23